sensor_id;sensor_type;location;lat;lon;timestamp;P1;durP1;ratioP1;P2;durP2;ratioP2
61291;SDS011;47165;42.664;23.368;2024-02-23T00:01:35;6.35;;;3.60;;
61291;SDS011;47165;42.664;23.368;2024-02-23T00:04:01;7.38;;;3.05;;
61291;SDS011;47165;42.664;23.368;2024-02-23T00:06:28;6.97;;;2.20;;
61291;SDS011;47165;42.664;23.368;2024-02-23T00:08:54;5.13;;;3.38;;
61291;SDS011;47165;42.664;23.368;2024-02-23T00:11:23;7.43;;;2.97;;
61291;SDS011;47165;42.664;23.368;2024-02-23T00:13:49;5.43;;;3.15;;
61291;SDS011;47165;42.664;23.368;2024-02-23T00:16:14;7.90;;;3.88;;
61291;SDS011;47165;42.664;23.368;2024-02-23T00:18:39;4.57;;;2.95;;
61291;SDS011;47165;42.664;23.368;2024-02-23T00:21:05;5.32;;;2.58;;
61291;SDS011;47165;42.664;23.368;2024-02-23T00:23:30;7.25;;;3.80;;
61291;SDS011;47165;42.664;23.368;2024-02-23T00:25:56;5.38;;;2.85;;
61291;SDS011;47165;42.664;23.368;2024-02-23T00:28:21;6.57;;;3.17;;
61291;SDS011;47165;42.664;23.368;2024-02-23T00:30:47;6.28;;;2.97;;
61291;SDS011;47165;42.664;23.368;2024-02-23T00:33:12;5.90;;;2.45;;
61291;SDS011;47165;42.664;23.368;2024-02-23T00:35:38;7.95;;;3.25;;
61291;SDS011;47165;42.664;23.368;2024-02-23T00:38:03;6.05;;;2.58;;
61291;SDS011;47165;42.664;23.368;2024-02-23T00:40:29;3.80;;;2.30;;
61291;SDS011;47165;42.664;23.368;2024-02-23T00:42:54;3.75;;;2.50;;
61291;SDS011;47165;42.664;23.368;2024-02-23T00:45:20;7.22;;;4.20;;
61291;SDS011;47165;42.664;23.368;2024-02-23T00:47:46;4.70;;;2.42;;
61291;SDS011;47165;42.664;23.368;2024-02-23T00:50:12;5.50;;;2.58;;
61291;SDS011;47165;42.664;23.368;2024-02-23T00:52:38;5.15;;;2.63;;
61291;SDS011;47165;42.664;23.368;2024-02-23T00:55:04;5.65;;;2.58;;
61291;SDS011;47165;42.664;23.368;2024-02-23T00:57:30;7.32;;;3.28;;
61291;SDS011;47165;42.664;23.368;2024-02-23T00:59:58;4.65;;;2.88;;
61291;SDS011;47165;42.664;23.368;2024-02-23T01:02:23;3.15;;;1.77;;
61291;SDS011;47165;42.664;23.368;2024-02-23T01:04:49;6.57;;;4.45;;
61291;SDS011;47165;42.664;23.368;2024-02-23T01:07:14;5.90;;;2.42;;
61291;SDS011;47165;42.664;23.368;2024-02-23T01:09:40;4.57;;;2.67;;
61291;SDS011;47165;42.664;23.368;2024-02-23T01:12:06;11.40;;;3.45;;
61291;SDS011;47165;42.664;23.368;2024-02-23T01:14:31;4.25;;;2.60;;
61291;SDS011;47165;42.664;23.368;2024-02-23T01:16:57;7.10;;;3.47;;
61291;SDS011;47165;42.664;23.368;2024-02-23T01:19:22;4.88;;;2.65;;
61291;SDS011;47165;42.664;23.368;2024-02-23T01:21:48;6.80;;;3.40;;
61291;SDS011;47165;42.664;23.368;2024-02-23T01:24:18;5.50;;;2.35;;
61291;SDS011;47165;42.664;23.368;2024-02-23T01:26:43;5.35;;;2.40;;
61291;SDS011;47165;42.664;23.368;2024-02-23T01:29:09;3.00;;;1.30;;
61291;SDS011;47165;42.664;23.368;2024-02-23T01:31:35;8.00;;;3.85;;
61291;SDS011;47165;42.664;23.368;2024-02-23T01:34:00;5.55;;;2.97;;
61291;SDS011;47165;42.664;23.368;2024-02-23T01:36:26;5.13;;;2.33;;
61291;SDS011;47165;42.664;23.368;2024-02-23T01:38:51;4.40;;;2.92;;
61291;SDS011;47165;42.664;23.368;2024-02-23T01:41:17;4.57;;;2.97;;
61291;SDS011;47165;42.664;23.368;2024-02-23T01:43:42;4.68;;;2.50;;
61291;SDS011;47165;42.664;23.368;2024-02-23T01:46:08;4.82;;;2.33;;
61291;SDS011;47165;42.664;23.368;2024-02-23T01:48:33;3.40;;;1.85;;
61291;SDS011;47165;42.664;23.368;2024-02-23T01:50:59;3.45;;;1.30;;
61291;SDS011;47165;42.664;23.368;2024-02-23T01:53:25;8.32;;;4.35;;
61291;SDS011;47165;42.664;23.368;2024-02-23T01:55:52;5.80;;;2.80;;
61291;SDS011;47165;42.664;23.368;2024-02-23T01:58:19;5.20;;;3.05;;
61291;SDS011;47165;42.664;23.368;2024-02-23T02:00:44;3.30;;;1.80;;
61291;SDS011;47165;42.664;23.368;2024-02-23T02:03:10;3.13;;;1.98;;
61291;SDS011;47165;42.664;23.368;2024-02-23T02:05:36;2.60;;;1.83;;
61291;SDS011;47165;42.664;23.368;2024-02-23T02:08:02;4.63;;;2.47;;
61291;SDS011;47165;42.664;23.368;2024-02-23T02:10:29;4.40;;;2.55;;
61291;SDS011;47165;42.664;23.368;2024-02-23T02:13:01;2.78;;;1.73;;
61291;SDS011;47165;42.664;23.368;2024-02-23T02:15:27;5.15;;;2.33;;
61291;SDS011;47165;42.664;23.368;2024-02-23T02:17:52;5.50;;;2.65;;
61291;SDS011;47165;42.664;23.368;2024-02-23T02:20:18;4.95;;;2.03;;
61291;SDS011;47165;42.664;23.368;2024-02-23T02:22:50;3.22;;;2.22;;
61291;SDS011;47165;42.664;23.368;2024-02-23T02:25:16;2.65;;;1.58;;
61291;SDS011;47165;42.664;23.368;2024-02-23T02:27:41;5.35;;;2.50;;
61291;SDS011;47165;42.664;23.368;2024-02-23T02:30:07;3.30;;;1.85;;
61291;SDS011;47165;42.664;23.368;2024-02-23T02:32:35;4.80;;;2.13;;
61291;SDS011;47165;42.664;23.368;2024-02-23T02:35:00;5.95;;;2.83;;
61291;SDS011;47165;42.664;23.368;2024-02-23T02:37:26;5.05;;;2.22;;
61291;SDS011;47165;42.664;23.368;2024-02-23T02:39:51;4.15;;;2.92;;
61291;SDS011;47165;42.664;23.368;2024-02-23T02:42:17;4.70;;;2.25;;
61291;SDS011;47165;42.664;23.368;2024-02-23T02:44:42;3.47;;;2.30;;
61291;SDS011;47165;42.664;23.368;2024-02-23T02:47:08;3.25;;;2.08;;
61291;SDS011;47165;42.664;23.368;2024-02-23T02:49:33;5.78;;;3.08;;
61291;SDS011;47165;42.664;23.368;2024-02-23T02:51:58;4.15;;;2.55;;
61291;SDS011;47165;42.664;23.368;2024-02-23T02:54:24;5.97;;;2.78;;
61291;SDS011;47165;42.664;23.368;2024-02-23T02:56:49;4.28;;;2.60;;
61291;SDS011;47165;42.664;23.368;2024-02-23T02:59:15;5.13;;;2.30;;
61291;SDS011;47165;42.664;23.368;2024-02-23T03:01:41;4.70;;;2.17;;
61291;SDS011;47165;42.664;23.368;2024-02-23T03:04:07;6.07;;;2.92;;
61291;SDS011;47165;42.664;23.368;2024-02-23T03:06:33;2.90;;;2.22;;
61291;SDS011;47165;42.664;23.368;2024-02-23T03:08:59;3.35;;;2.17;;
61291;SDS011;47165;42.664;23.368;2024-02-23T03:11:24;8.05;;;4.28;;
61291;SDS011;47165;42.664;23.368;2024-02-23T03:13:49;4.82;;;2.72;;
61291;SDS011;47165;42.664;23.368;2024-02-23T03:16:16;3.08;;;1.85;;
61291;SDS011;47165;42.664;23.368;2024-02-23T03:18:42;3.90;;;2.20;;
61291;SDS011;47165;42.664;23.368;2024-02-23T03:21:08;6.53;;;3.50;;
61291;SDS011;47165;42.664;23.368;2024-02-23T03:23:34;9.98;;;6.15;;
61291;SDS011;47165;42.664;23.368;2024-02-23T03:26:00;6.32;;;3.78;;
61291;SDS011;47165;42.664;23.368;2024-02-23T03:28:26;5.68;;;2.78;;
61291;SDS011;47165;42.664;23.368;2024-02-23T03:30:52;4.13;;;1.80;;
61291;SDS011;47165;42.664;23.368;2024-02-23T03:33:18;3.92;;;2.30;;
61291;SDS011;47165;42.664;23.368;2024-02-23T03:35:44;6.10;;;3.67;;
61291;SDS011;47165;42.664;23.368;2024-02-23T03:38:09;4.57;;;2.38;;
61291;SDS011;47165;42.664;23.368;2024-02-23T03:40:35;4.45;;;1.63;;
61291;SDS011;47165;42.664;23.368;2024-02-23T03:43:03;4.68;;;2.28;;
61291;SDS011;47165;42.664;23.368;2024-02-23T03:45:28;5.85;;;2.58;;
61291;SDS011;47165;42.664;23.368;2024-02-23T03:47:54;1.27;;;0.93;;
61291;SDS011;47165;42.664;23.368;2024-02-23T03:50:20;4.13;;;1.92;;
61291;SDS011;47165;42.664;23.368;2024-02-23T03:52:45;5.63;;;2.03;;
61291;SDS011;47165;42.664;23.368;2024-02-23T03:55:11;7.60;;;2.90;;
61291;SDS011;47165;42.664;23.368;2024-02-23T03:57:36;5.13;;;2.92;;
61291;SDS011;47165;42.664;23.368;2024-02-23T04:00:02;3.22;;;1.95;;
61291;SDS011;47165;42.664;23.368;2024-02-23T04:02:29;4.50;;;2.08;;
61291;SDS011;47165;42.664;23.368;2024-02-23T04:04:54;3.90;;;2.40;;
61291;SDS011;47165;42.664;23.368;2024-02-23T04:07:20;3.78;;;2.45;;
61291;SDS011;47165;42.664;23.368;2024-02-23T04:09:46;3.80;;;2.13;;
61291;SDS011;47165;42.664;23.368;2024-02-23T04:12:17;4.95;;;2.42;;
61291;SDS011;47165;42.664;23.368;2024-02-23T04:14:46;4.10;;;2.28;;
61291;SDS011;47165;42.664;23.368;2024-02-23T04:17:12;3.17;;;2.03;;
61291;SDS011;47165;42.664;23.368;2024-02-23T04:19:38;3.28;;;2.25;;
61291;SDS011;47165;42.664;23.368;2024-02-23T04:22:06;8.68;;;4.78;;
61291;SDS011;47165;42.664;23.368;2024-02-23T04:24:34;5.00;;;2.75;;
61291;SDS011;47165;42.664;23.368;2024-02-23T04:26:59;4.72;;;2.15;;
61291;SDS011;47165;42.664;23.368;2024-02-23T04:29:25;6.35;;;2.45;;
61291;SDS011;47165;42.664;23.368;2024-02-23T04:31:50;3.00;;;1.80;;
61291;SDS011;47165;42.664;23.368;2024-02-23T04:34:16;3.53;;;1.85;;
61291;SDS011;47165;42.664;23.368;2024-02-23T04:36:41;5.97;;;2.55;;
61291;SDS011;47165;42.664;23.368;2024-02-23T04:39:07;5.40;;;2.22;;
61291;SDS011;47165;42.664;23.368;2024-02-23T04:41:33;3.65;;;2.33;;
61291;SDS011;47165;42.664;23.368;2024-02-23T04:43:58;5.68;;;2.15;;
61291;SDS011;47165;42.664;23.368;2024-02-23T04:46:26;4.07;;;1.73;;
61291;SDS011;47165;42.664;23.368;2024-02-23T04:48:51;5.15;;;2.35;;
61291;SDS011;47165;42.664;23.368;2024-02-23T04:51:17;2.45;;;1.83;;
61291;SDS011;47165;42.664;23.368;2024-02-23T04:53:43;7.13;;;3.72;;
61291;SDS011;47165;42.664;23.368;2024-02-23T04:56:09;4.90;;;2.90;;
61291;SDS011;47165;42.664;23.368;2024-02-23T04:58:34;3.92;;;1.90;;
61291;SDS011;47165;42.664;23.368;2024-02-23T05:00:59;3.22;;;1.48;;
61291;SDS011;47165;42.664;23.368;2024-02-23T05:03:28;4.50;;;2.75;;
61291;SDS011;47165;42.664;23.368;2024-02-23T05:05:53;6.63;;;3.83;;
61291;SDS011;47165;42.664;23.368;2024-02-23T05:08:19;5.45;;;2.97;;
61291;SDS011;47165;42.664;23.368;2024-02-23T05:10:46;4.72;;;2.40;;
61291;SDS011;47165;42.664;23.368;2024-02-23T05:13:12;6.80;;;3.33;;
61291;SDS011;47165;42.664;23.368;2024-02-23T05:15:38;3.67;;;2.22;;
61291;SDS011;47165;42.664;23.368;2024-02-23T05:18:04;3.15;;;2.20;;
61291;SDS011;47165;42.664;23.368;2024-02-23T05:20:30;8.38;;;4.18;;
61291;SDS011;47165;42.664;23.368;2024-02-23T05:22:56;4.63;;;3.00;;
61291;SDS011;47165;42.664;23.368;2024-02-23T05:25:21;4.45;;;2.88;;
61291;SDS011;47165;42.664;23.368;2024-02-23T05:27:46;7.38;;;3.80;;
61291;SDS011;47165;42.664;23.368;2024-02-23T05:30:12;2.97;;;1.80;;
61291;SDS011;47165;42.664;23.368;2024-02-23T05:32:38;2.88;;;1.95;;
61291;SDS011;47165;42.664;23.368;2024-02-23T05:35:04;4.10;;;2.17;;
61291;SDS011;47165;42.664;23.368;2024-02-23T05:37:30;5.15;;;2.30;;
61291;SDS011;47165;42.664;23.368;2024-02-23T05:39:55;7.15;;;2.97;;
61291;SDS011;47165;42.664;23.368;2024-02-23T05:42:20;8.60;;;4.25;;
61291;SDS011;47165;42.664;23.368;2024-02-23T05:44:46;10.10;;;3.55;;
61291;SDS011;47165;42.664;23.368;2024-02-23T05:47:13;6.97;;;2.50;;
61291;SDS011;47165;42.664;23.368;2024-02-23T05:49:39;5.60;;;2.50;;
61291;SDS011;47165;42.664;23.368;2024-02-23T05:52:06;3.90;;;2.25;;
61291;SDS011;47165;42.664;23.368;2024-02-23T05:54:31;8.10;;;4.40;;
61291;SDS011;47165;42.664;23.368;2024-02-23T05:56:57;1.83;;;0.75;;
61291;SDS011;47165;42.664;23.368;2024-02-23T05:59:22;11.43;;;5.57;;
61291;SDS011;47165;42.664;23.368;2024-02-23T06:01:48;9.05;;;3.75;;
61291;SDS011;47165;42.664;23.368;2024-02-23T06:04:13;5.68;;;2.65;;
61291;SDS011;47165;42.664;23.368;2024-02-23T06:06:42;6.50;;;3.17;;
61291;SDS011;47165;42.664;23.368;2024-02-23T06:09:11;5.97;;;2.60;;
61291;SDS011;47165;42.664;23.368;2024-02-23T06:11:36;5.85;;;3.38;;
61291;SDS011;47165;42.664;23.368;2024-02-23T06:14:02;4.10;;;2.78;;
61291;SDS011;47165;42.664;23.368;2024-02-23T06:16:27;7.22;;;3.58;;
61291;SDS011;47165;42.664;23.368;2024-02-23T06:18:53;8.35;;;3.70;;
61291;SDS011;47165;42.664;23.368;2024-02-23T06:21:18;7.75;;;4.03;;
61291;SDS011;47165;42.664;23.368;2024-02-23T06:23:44;6.07;;;3.10;;
61291;SDS011;47165;42.664;23.368;2024-02-23T06:26:11;5.05;;;2.58;;
61291;SDS011;47165;42.664;23.368;2024-02-23T06:28:37;4.07;;;2.15;;
61291;SDS011;47165;42.664;23.368;2024-02-23T06:31:07;5.47;;;2.72;;
61291;SDS011;47165;42.664;23.368;2024-02-23T06:33:32;8.57;;;4.18;;
61291;SDS011;47165;42.664;23.368;2024-02-23T06:35:58;3.88;;;2.30;;
61291;SDS011;47165;42.664;23.368;2024-02-23T06:38:24;7.13;;;3.17;;
61291;SDS011;47165;42.664;23.368;2024-02-23T06:40:49;13.23;;;6.55;;
61291;SDS011;47165;42.664;23.368;2024-02-23T06:43:15;11.80;;;5.97;;
61291;SDS011;47165;42.664;23.368;2024-02-23T06:45:40;6.50;;;3.80;;
61291;SDS011;47165;42.664;23.368;2024-02-23T06:48:06;4.03;;;2.78;;
61291;SDS011;47165;42.664;23.368;2024-02-23T06:50:32;8.75;;;4.15;;
61291;SDS011;47165;42.664;23.368;2024-02-23T06:52:57;6.72;;;3.65;;
61291;SDS011;47165;42.664;23.368;2024-02-23T06:55:22;5.13;;;2.35;;
61291;SDS011;47165;42.664;23.368;2024-02-23T06:57:48;5.80;;;3.15;;
61291;SDS011;47165;42.664;23.368;2024-02-23T07:00:13;6.30;;;3.63;;
61291;SDS011;47165;42.664;23.368;2024-02-23T07:02:39;3.25;;;1.80;;
61291;SDS011;47165;42.664;23.368;2024-02-23T07:05:05;5.72;;;3.50;;
61291;SDS011;47165;42.664;23.368;2024-02-23T07:07:32;8.00;;;4.07;;
61291;SDS011;47165;42.664;23.368;2024-02-23T07:09:58;7.90;;;3.47;;
61291;SDS011;47165;42.664;23.368;2024-02-23T07:12:24;6.13;;;3.03;;
61291;SDS011;47165;42.664;23.368;2024-02-23T07:14:53;9.90;;;5.47;;
61291;SDS011;47165;42.664;23.368;2024-02-23T07:17:18;10.57;;;4.22;;
61291;SDS011;47165;42.664;23.368;2024-02-23T07:19:44;9.15;;;3.15;;
61291;SDS011;47165;42.664;23.368;2024-02-23T07:22:10;5.30;;;3.25;;
61291;SDS011;47165;42.664;23.368;2024-02-23T07:24:39;9.27;;;6.22;;
61291;SDS011;47165;42.664;23.368;2024-02-23T07:27:07;6.65;;;3.30;;
61291;SDS011;47165;42.664;23.368;2024-02-23T07:29:33;2.53;;;2.00;;
61291;SDS011;47165;42.664;23.368;2024-02-23T07:31:58;6.88;;;3.65;;
61291;SDS011;47165;42.664;23.368;2024-02-23T07:34:24;12.23;;;4.55;;
61291;SDS011;47165;42.664;23.368;2024-02-23T07:36:52;17.27;;;7.18;;
61291;SDS011;47165;42.664;23.368;2024-02-23T07:39:19;7.38;;;4.80;;
61291;SDS011;47165;42.664;23.368;2024-02-23T07:41:46;10.43;;;4.60;;
61291;SDS011;47165;42.664;23.368;2024-02-23T07:44:11;9.82;;;3.90;;
61291;SDS011;47165;42.664;23.368;2024-02-23T07:46:37;5.60;;;3.72;;
61291;SDS011;47165;42.664;23.368;2024-02-23T07:49:03;13.27;;;4.47;;
61291;SDS011;47165;42.664;23.368;2024-02-23T07:51:29;9.63;;;4.97;;
61291;SDS011;47165;42.664;23.368;2024-02-23T07:53:55;8.40;;;3.92;;
61291;SDS011;47165;42.664;23.368;2024-02-23T07:56:20;7.10;;;4.13;;
61291;SDS011;47165;42.664;23.368;2024-02-23T07:58:46;4.65;;;2.80;;
61291;SDS011;47165;42.664;23.368;2024-02-23T08:01:12;7.85;;;4.43;;
61291;SDS011;47165;42.664;23.368;2024-02-23T08:03:39;5.85;;;3.10;;
61291;SDS011;47165;42.664;23.368;2024-02-23T08:06:05;4.60;;;2.75;;
61291;SDS011;47165;42.664;23.368;2024-02-23T08:08:30;12.15;;;3.72;;
61291;SDS011;47165;42.664;23.368;2024-02-23T08:10:59;7.20;;;2.72;;
61291;SDS011;47165;42.664;23.368;2024-02-23T08:13:28;5.03;;;1.83;;
61291;SDS011;47165;42.664;23.368;2024-02-23T08:15:54;6.47;;;2.58;;
61291;SDS011;47165;42.664;23.368;2024-02-23T08:18:19;8.65;;;4.57;;
61291;SDS011;47165;42.664;23.368;2024-02-23T08:20:47;12.88;;;5.32;;
61291;SDS011;47165;42.664;23.368;2024-02-23T08:23:13;8.25;;;5.15;;
61291;SDS011;47165;42.664;23.368;2024-02-23T08:25:38;8.52;;;5.45;;
61291;SDS011;47165;42.664;23.368;2024-02-23T08:28:04;7.43;;;5.00;;
61291;SDS011;47165;42.664;23.368;2024-02-23T08:30:29;11.63;;;5.22;;
61291;SDS011;47165;42.664;23.368;2024-02-23T08:32:55;11.23;;;5.32;;
61291;SDS011;47165;42.664;23.368;2024-02-23T08:35:20;7.45;;;3.63;;
61291;SDS011;47165;42.664;23.368;2024-02-23T08:37:46;6.55;;;4.13;;
61291;SDS011;47165;42.664;23.368;2024-02-23T08:40:11;11.23;;;5.07;;
61291;SDS011;47165;42.664;23.368;2024-02-23T08:42:37;11.77;;;5.60;;
61291;SDS011;47165;42.664;23.368;2024-02-23T08:45:03;7.88;;;4.50;;
61291;SDS011;47165;42.664;23.368;2024-02-23T08:47:29;7.25;;;3.15;;
61291;SDS011;47165;42.664;23.368;2024-02-23T08:49:58;8.73;;;4.95;;
61291;SDS011;47165;42.664;23.368;2024-02-23T08:52:24;7.35;;;3.65;;
61291;SDS011;47165;42.664;23.368;2024-02-23T08:54:50;5.28;;;2.78;;
61291;SDS011;47165;42.664;23.368;2024-02-23T08:57:16;8.73;;;3.50;;
61291;SDS011;47165;42.664;23.368;2024-02-23T08:59:44;8.23;;;3.78;;
61291;SDS011;47165;42.664;23.368;2024-02-23T09:02:12;4.60;;;2.53;;
61291;SDS011;47165;42.664;23.368;2024-02-23T09:04:38;5.07;;;2.53;;
61291;SDS011;47165;42.664;23.368;2024-02-23T09:07:03;6.43;;;2.80;;
61291;SDS011;47165;42.664;23.368;2024-02-23T09:09:29;8.10;;;4.60;;
61291;SDS011;47165;42.664;23.368;2024-02-23T09:11:55;8.40;;;3.83;;
61291;SDS011;47165;42.664;23.368;2024-02-23T09:14:20;11.23;;;4.82;;
61291;SDS011;47165;42.664;23.368;2024-02-23T09:16:46;5.80;;;3.05;;
61291;SDS011;47165;42.664;23.368;2024-02-23T09:19:12;7.88;;;4.22;;
61291;SDS011;47165;42.664;23.368;2024-02-23T09:21:38;7.57;;;4.25;;
61291;SDS011;47165;42.664;23.368;2024-02-23T09:24:03;4.22;;;2.05;;
61291;SDS011;47165;42.664;23.368;2024-02-23T09:26:29;5.75;;;2.50;;
61291;SDS011;47165;42.664;23.368;2024-02-23T09:28:56;7.80;;;4.20;;
61291;SDS011;47165;42.664;23.368;2024-02-23T09:31:21;6.03;;;2.80;;
61291;SDS011;47165;42.664;23.368;2024-02-23T09:33:47;5.55;;;3.25;;
61291;SDS011;47165;42.664;23.368;2024-02-23T09:36:15;6.35;;;4.03;;
61291;SDS011;47165;42.664;23.368;2024-02-23T09:38:42;5.88;;;3.28;;
61291;SDS011;47165;42.664;23.368;2024-02-23T09:41:11;5.15;;;2.35;;
61291;SDS011;47165;42.664;23.368;2024-02-23T09:46:11;4.40;;;2.47;;
61291;SDS011;47165;42.664;23.368;2024-02-23T09:48:37;5.10;;;2.90;;
61291;SDS011;47165;42.664;23.368;2024-02-23T09:51:05;6.22;;;4.07;;
61291;SDS011;47165;42.664;23.368;2024-02-23T09:53:31;7.43;;;3.35;;
61291;SDS011;47165;42.664;23.368;2024-02-23T09:56:01;5.75;;;2.97;;
61291;SDS011;47165;42.664;23.368;2024-02-23T09:58:28;3.78;;;2.20;;
61291;SDS011;47165;42.664;23.368;2024-02-23T10:00:59;6.32;;;2.65;;
61291;SDS011;47165;42.664;23.368;2024-02-23T10:03:27;4.10;;;2.13;;
61291;SDS011;47165;42.664;23.368;2024-02-23T10:05:56;4.80;;;2.63;;
61291;SDS011;47165;42.664;23.368;2024-02-23T10:08:22;4.07;;;2.38;;
61291;SDS011;47165;42.664;23.368;2024-02-23T10:10:48;4.25;;;2.42;;
61291;SDS011;47165;42.664;23.368;2024-02-23T10:13:20;4.05;;;2.35;;
61291;SDS011;47165;42.664;23.368;2024-02-23T10:15:49;4.30;;;2.50;;
61291;SDS011;47165;42.664;23.368;2024-02-23T10:18:16;3.28;;;1.75;;
61291;SDS011;47165;42.664;23.368;2024-02-23T10:20:41;5.93;;;1.92;;
61291;SDS011;47165;42.664;23.368;2024-02-23T10:23:07;3.92;;;1.90;;
61291;SDS011;47165;42.664;23.368;2024-02-23T10:25:34;1.92;;;1.58;;
61291;SDS011;47165;42.664;23.368;2024-02-23T10:28:00;4.18;;;1.92;;
61291;SDS011;47165;42.664;23.368;2024-02-23T10:30:27;2.63;;;1.60;;
61291;SDS011;47165;42.664;23.368;2024-02-23T10:32:54;4.45;;;2.47;;
61291;SDS011;47165;42.664;23.368;2024-02-23T10:35:21;5.35;;;2.17;;
61291;SDS011;47165;42.664;23.368;2024-02-23T10:37:48;2.42;;;1.50;;
61291;SDS011;47165;42.664;23.368;2024-02-23T10:40:18;1.92;;;1.10;;
61291;SDS011;47165;42.664;23.368;2024-02-23T10:42:45;2.00;;;1.50;;
61291;SDS011;47165;42.664;23.368;2024-02-23T10:45:19;6.68;;;1.83;;
61291;SDS011;47165;42.664;23.368;2024-02-23T10:47:47;3.33;;;1.90;;
61291;SDS011;47165;42.664;23.368;2024-02-23T10:50:14;2.28;;;1.23;;
61291;SDS011;47165;42.664;23.368;2024-02-23T10:52:43;7.32;;;2.47;;
61291;SDS011;47165;42.664;23.368;2024-02-23T10:55:09;3.38;;;1.55;;
61291;SDS011;47165;42.664;23.368;2024-02-23T10:57:35;2.95;;;1.73;;
61291;SDS011;47165;42.664;23.368;2024-02-23T11:00:02;2.95;;;2.00;;
61291;SDS011;47165;42.664;23.368;2024-02-23T11:02:36;3.23;;;1.47;;
61291;SDS011;47165;42.664;23.368;2024-02-23T11:05:06;3.38;;;1.73;;
61291;SDS011;47165;42.664;23.368;2024-02-23T11:07:37;3.95;;;1.70;;
61291;SDS011;47165;42.664;23.368;2024-02-23T11:10:04;1.85;;;1.10;;
61291;SDS011;47165;42.664;23.368;2024-02-23T11:12:30;2.47;;;1.50;;
61291;SDS011;47165;42.664;23.368;2024-02-23T11:14:56;2.17;;;1.33;;
61291;SDS011;47165;42.664;23.368;2024-02-23T11:17:25;2.70;;;1.63;;
61291;SDS011;47165;42.664;23.368;2024-02-23T11:19:51;1.83;;;1.20;;
61291;SDS011;47165;42.664;23.368;2024-02-23T11:22:26;4.28;;;1.65;;
61291;SDS011;47165;42.664;23.368;2024-02-23T11:24:52;2.92;;;1.73;;
61291;SDS011;47165;42.664;23.368;2024-02-23T11:27:21;3.40;;;1.63;;
61291;SDS011;47165;42.664;23.368;2024-02-23T11:29:58;2.08;;;1.20;;
61291;SDS011;47165;42.664;23.368;2024-02-23T11:32:44;1.88;;;1.17;;
61291;SDS011;47165;42.664;23.368;2024-02-23T11:35:12;1.50;;;1.23;;
61291;SDS011;47165;42.664;23.368;2024-02-23T11:43:00;3.00;;;1.30;;
61291;SDS011;47165;42.664;23.368;2024-02-23T11:45:28;1.60;;;1.02;;
61291;SDS011;47165;42.664;23.368;2024-02-23T11:47:54;2.60;;;1.58;;
61291;SDS011;47165;42.664;23.368;2024-02-23T11:50:20;3.28;;;1.50;;
61291;SDS011;47165;42.664;23.368;2024-02-23T11:52:46;3.47;;;1.48;;
61291;SDS011;47165;42.664;23.368;2024-02-23T11:55:12;2.10;;;1.40;;
61291;SDS011;47165;42.664;23.368;2024-02-23T11:57:42;1.80;;;1.55;;
61291;SDS011;47165;42.664;23.368;2024-02-23T12:00:10;2.72;;;1.60;;
61291;SDS011;47165;42.664;23.368;2024-02-23T12:02:36;2.10;;;1.52;;
61291;SDS011;47165;42.664;23.368;2024-02-23T12:05:01;3.08;;;1.83;;
61291;SDS011;47165;42.664;23.368;2024-02-23T12:07:30;2.00;;;1.33;;
61291;SDS011;47165;42.664;23.368;2024-02-23T12:09:57;1.65;;;1.48;;
61291;SDS011;47165;42.664;23.368;2024-02-23T12:12:23;2.13;;;1.27;;
61291;SDS011;47165;42.664;23.368;2024-02-23T12:14:50;2.10;;;1.27;;
61291;SDS011;47165;42.664;23.368;2024-02-23T12:17:16;4.53;;;1.48;;
61291;SDS011;47165;42.664;23.368;2024-02-23T12:19:41;2.20;;;1.30;;
61291;SDS011;47165;42.664;23.368;2024-02-23T12:22:07;1.77;;;1.20;;
61291;SDS011;47165;42.664;23.368;2024-02-23T12:24:32;1.77;;;1.40;;
61291;SDS011;47165;42.664;23.368;2024-02-23T12:26:59;1.30;;;1.20;;
61291;SDS011;47165;42.664;23.368;2024-02-23T12:29:25;2.40;;;1.77;;
61291;SDS011;47165;42.664;23.368;2024-02-23T12:32:01;2.00;;;1.25;;
61291;SDS011;47165;42.664;23.368;2024-02-23T12:34:31;1.65;;;1.20;;
61291;SDS011;47165;42.664;23.368;2024-02-23T12:36:56;2.17;;;1.30;;
61291;SDS011;47165;42.664;23.368;2024-02-23T12:39:22;2.33;;;1.13;;
61291;SDS011;47165;42.664;23.368;2024-02-23T12:41:48;4.50;;;1.15;;
61291;SDS011;47165;42.664;23.368;2024-02-23T12:44:13;1.40;;;1.10;;
61291;SDS011;47165;42.664;23.368;2024-02-23T12:46:39;1.67;;;1.05;;
61291;SDS011;47165;42.664;23.368;2024-02-23T12:49:05;1.70;;;1.25;;
61291;SDS011;47165;42.664;23.368;2024-02-23T12:51:31;2.55;;;1.40;;
61291;SDS011;47165;42.664;23.368;2024-02-23T12:53:56;1.67;;;1.30;;
61291;SDS011;47165;42.664;23.368;2024-02-23T12:56:22;1.63;;;1.10;;
61291;SDS011;47165;42.664;23.368;2024-02-23T12:58:47;3.13;;;1.30;;
61291;SDS011;47165;42.664;23.368;2024-02-23T13:01:13;2.92;;;1.23;;
61291;SDS011;47165;42.664;23.368;2024-02-23T13:03:39;1.77;;;1.00;;
61291;SDS011;47165;42.664;23.368;2024-02-23T13:06:07;1.58;;;0.82;;
61291;SDS011;47165;42.664;23.368;2024-02-23T13:08:33;1.90;;;1.33;;
61291;SDS011;47165;42.664;23.368;2024-02-23T13:10:59;2.05;;;1.10;;
61291;SDS011;47165;42.664;23.368;2024-02-23T13:13:25;1.60;;;1.38;;
61291;SDS011;47165;42.664;23.368;2024-02-23T13:15:51;1.58;;;1.23;;
61291;SDS011;47165;42.664;23.368;2024-02-23T13:18:17;2.40;;;1.27;;
61291;SDS011;47165;42.664;23.368;2024-02-23T13:20:44;1.83;;;1.30;;
61291;SDS011;47165;42.664;23.368;2024-02-23T13:23:10;2.22;;;1.45;;
61291;SDS011;47165;42.664;23.368;2024-02-23T13:25:37;1.63;;;1.20;;
61291;SDS011;47165;42.664;23.368;2024-02-23T13:28:04;1.75;;;1.30;;
61291;SDS011;47165;42.664;23.368;2024-02-23T13:30:31;1.25;;;0.90;;
61291;SDS011;47165;42.664;23.368;2024-02-23T13:32:57;0.63;;;0.63;;
61291;SDS011;47165;42.664;23.368;2024-02-23T13:35:23;3.42;;;2.08;;
61291;SDS011;47165;42.664;23.368;2024-02-23T13:37:48;3.33;;;1.33;;
61291;SDS011;47165;42.664;23.368;2024-02-23T13:40:13;1.45;;;1.05;;
61291;SDS011;47165;42.664;23.368;2024-02-23T13:42:39;3.50;;;1.02;;
61291;SDS011;47165;42.664;23.368;2024-02-23T13:45:06;1.20;;;0.98;;
61291;SDS011;47165;42.664;23.368;2024-02-23T13:47:32;2.40;;;1.40;;
61291;SDS011;47165;42.664;23.368;2024-02-23T13:49:59;1.92;;;1.23;;
61291;SDS011;47165;42.664;23.368;2024-02-23T13:52:25;3.17;;;1.45;;
61291;SDS011;47165;42.664;23.368;2024-02-23T13:54:50;3.03;;;1.80;;
61291;SDS011;47165;42.664;23.368;2024-02-23T13:57:16;4.00;;;1.73;;
61291;SDS011;47165;42.664;23.368;2024-02-23T13:59:41;2.88;;;1.48;;
61291;SDS011;47165;42.664;23.368;2024-02-23T14:02:07;7.00;;;1.50;;
61291;SDS011;47165;42.664;23.368;2024-02-23T14:04:32;4.97;;;1.52;;
61291;SDS011;47165;42.664;23.368;2024-02-23T14:06:58;3.75;;;2.03;;
61291;SDS011;47165;42.664;23.368;2024-02-23T14:09:23;1.92;;;0.95;;
61291;SDS011;47165;42.664;23.368;2024-02-23T14:11:49;3.78;;;1.83;;
61291;SDS011;47165;42.664;23.368;2024-02-23T14:14:14;2.33;;;1.33;;
61291;SDS011;47165;42.664;23.368;2024-02-23T14:16:41;5.15;;;1.90;;
61291;SDS011;47165;42.664;23.368;2024-02-23T14:19:06;2.35;;;1.33;;
61291;SDS011;47165;42.664;23.368;2024-02-23T14:21:32;2.10;;;1.13;;
61291;SDS011;47165;42.664;23.368;2024-02-23T14:23:58;2.45;;;1.88;;
61291;SDS011;47165;42.664;23.368;2024-02-23T14:26:23;3.85;;;1.63;;
61291;SDS011;47165;42.664;23.368;2024-02-23T14:28:49;2.05;;;1.27;;
61291;SDS011;47165;42.664;23.368;2024-02-23T14:31:15;2.35;;;1.45;;
61291;SDS011;47165;42.664;23.368;2024-02-23T14:33:40;2.20;;;1.48;;
61291;SDS011;47165;42.664;23.368;2024-02-23T14:36:06;2.42;;;1.17;;